Terminal Aerodrome Forecast
Issued by NWS

Home | Current Version | Previous Version | Text Only | Print | Product List | Glossary On
Versions: 1 2 3 4 5 6 7 8 9 10 11 12 13 14
000
FTUS45 KVEF 231734
TAFVGT
TAF
KVGT 231734Z 2318/2418 13007KT P6SM SCT150
     FM240300 15010KT P6SM SCT150 SCT250
     FM241100 VRB06KT P6SM SCT150 BKN250
     FM241700 15012KT P6SM SCT100 BKN150=

USA.gov is the U.S. government's official web portal to all federal, state and local government web resources and services.